Time;durP1;ratioP1;P1;durP2;ratioP2;P2;SDS_P1;SDS_P2;PMS_P1;PMS_P2;Temp;Humidity;BMP_temperature;BMP_pressure;BME280_temperature;BME280_humidity;BME280_pressure;Samples;Min_cycle;Max_cycle;Signal;HPM_P1;HPM_P2
2023/03/29 06:58:53;;;;;;;15.75;9.68;;;7.20;99.90;;;;;;5104814;27;20386;-73
2023/03/29 07:01:19;;;;;;;13.80;8.63;;;7.20;99.90;;;;;;5081144;28;20433;-73
2023/03/29 07:03:46;;;;;;;15.30;8.88;;;7.20;99.90;;;;;;5061169;28;20076;-74
2023/03/29 07:25:11;;;;;;;11.25;8.27;;;7.50;99.90;;;;;;5110144;27;20387;-72
2023/03/29 07:36:27;;;;;;;19.92;9.52;;;7.60;99.90;;;;;;5092346;27;1981742;-74
2023/03/29 07:38:55;;;;;;;15.90;8.75;;;7.70;99.90;;;;;;5094793;27;20574;-75
2023/03/29 07:41:21;;;;;;;12.55;8.35;;;7.70;99.90;;;;;;5104874;27;20078;-74
2023/03/29 07:43:48;;;;;;;16.33;8.82;;;7.80;99.90;;;;;;5126494;27;20093;-73
2023/03/29 07:46:14;;;;;;;12.00;8.52;;;7.80;99.90;;;;;;5114852;27;20054;-74
2023/03/29 07:48:40;;;;;;;13.95;8.63;;;7.90;99.90;;;;;;5086258;27;20043;-74
2023/03/29 07:51:06;;;;;;;19.40;8.88;;;7.90;99.90;;;;;;5111645;27;20123;-71
2023/03/29 07:53:32;;;;;;;14.30;9.23;;;8.00;99.90;;;;;;5094378;27;20078;-73
2023/03/29 07:55:58;;;;;;;14.52;8.30;;;8.00;99.90;;;;;;5099346;27;20136;-74
2023/03/29 07:58:24;;;;;;;14.82;7.93;;;8.10;99.90;;;;;;5081286;27;20044;-73
2023/03/29 08:00:50;;;;;;;14.25;8.88;;;8.10;99.90;;;;;;5113600;27;20041;-74
2023/03/29 08:03:15;;;;;;;13.38;8.25;;;8.20;99.90;;;;;;5110813;27;20103;-73
2023/03/29 08:05:42;;;;;;;15.77;8.82;;;8.30;99.90;;;;;;5114865;27;20069;-74
2023/03/29 08:08:08;;;;;;;14.57;9.18;;;8.30;99.90;;;;;;5103436;27;20454;-74
2023/03/29 08:10:36;;;;;;;18.65;8.75;;;8.40;99.90;;;;;;5105358;27;20584;-75
2023/03/29 08:13:06;;;;;;;13.57;8.15;;;8.40;99.90;;;;;;5109331;27;20062;-73
2023/03/29 08:15:40;;;;;;;13.35;8.20;;;8.40;99.90;;;;;;5111335;27;20187;-74
2023/03/29 08:18:06;;;;;;;16.40;8.23;;;8.40;99.90;;;;;;5105534;27;20047;-73
2023/03/29 08:20:32;;;;;;;16.67;8.80;;;8.50;99.90;;;;;;5108330;27;20054;-73
2023/03/29 08:22:58;;;;;;;19.55;9.27;;;8.60;99.90;;;;;;5104515;27;20267;-73
2023/03/29 08:25:24;;;;;;;13.35;8.68;;;8.70;99.90;;;;;;5108516;27;20051;-74
2023/03/29 08:27:50;;;;;;;14.25;8.73;;;8.70;99.90;;;;;;5093201;27;20047;-73
2023/03/29 08:30:17;;;;;;;12.63;8.23;;;8.70;99.90;;;;;;5107832;27;20095;-73
2023/03/29 08:32:42;;;;;;;17.77;8.43;;;8.80;99.90;;;;;;5121866;27;20122;-74
2023/03/29 08:35:08;;;;;;;13.82;8.25;;;8.90;99.90;;;;;;5107282;27;20055;-72
2023/03/29 08:37:36;;;;;;;13.80;8.88;;;8.90;99.90;;;;;;5086149;27;20102;-75
2023/03/29 08:40:02;;;;;;;15.45;8.00;;;9.00;99.90;;;;;;5093435;27;20039;-73
2023/03/29 08:42:47;;;;;;;15.85;8.35;;;9.00;99.90;;;;;;5105054;27;20043;-74
2023/03/29 08:45:34;;;;;;;15.05;8.10;;;9.00;99.90;;;;;;5104562;27;20679;-74
2023/03/29 08:48:20;;;;;;;15.82;7.88;;;9.10;99.90;;;;;;5077074;27;20047;-74
2023/03/29 08:50:53;;;;;;;18.75;9.27;;;8.30;99.90;;;;;;5083528;27;20187;-74
2023/03/29 08:53:26;;;;;;;17.13;8.65;;;9.20;99.90;;;;;;5091634;27;20047;-74
2023/03/29 08:55:57;;;;;;;15.68;8.80;;;9.20;99.90;;;;;;5079523;27;20478;-74
2023/03/29 08:58:27;;;;;;;17.73;8.63;;;9.30;99.90;;;;;;5092936;27;20474;-74
2023/03/29 09:00:57;;;;;;;18.67;8.70;;;9.30;99.90;;;;;;5098810;27;20040;-73
2023/03/29 09:03:24;;;;;;;20.40;9.35;;;9.40;99.90;;;;;;5093223;27;20051;-73
2023/03/29 09:06:04;;;;;;;16.10;8.90;;;9.40;99.90;;;;;;5096426;27;20138;-74
2023/03/29 09:08:31;;;;;;;17.40;8.15;;;9.40;99.90;;;;;;5090411;27;20101;-74
2023/03/29 09:11:45;;;;;;;16.33;8.95;;;9.50;99.90;;;;;;5076600;27;20485;-74
2023/03/29 09:14:35;;;;;;;19.25;8.98;;;9.50;99.90;;;;;;5036831;27;20061;-74
2023/03/29 09:17:23;;;;;;;18.20;9.13;;;9.60;99.90;;;;;;5075214;27;20051;-73
2023/03/29 09:19:53;;;;;;;16.25;9.25;;;9.60;99.90;;;;;;5098406;27;20051;-73
2023/03/29 09:22:38;;;;;;;16.77;9.15;;;9.70;99.90;;;;;;5099478;27;20047;-74
2023/03/29 09:25:24;;;;;;;16.08;8.50;;;9.70;99.90;;;;;;5089941;27;20070;-74
2023/03/29 09:32:21;;;;;;;16.77;8.85;;;9.60;99.90;;;;;;5150956;27;20308;-70
2023/03/29 09:35:02;;;;;;;15.55;9.10;;;9.70;99.90;;;;;;5126301;27;20408;-71
2023/03/29 09:37:34;;;;;;;18.95;9.15;;;9.80;99.90;;;;;;5159609;27;20146;-71
2023/03/29 09:40:09;;;;;;;18.85;9.57;;;9.80;99.90;;;;;;5121747;27;20397;-71
2023/03/29 09:42:36;;;;;;;;;;;9.90;99.90;;;;;;5113414;27;20050;-72
2023/03/29 09:45:08;;;;;;;19.30;8.98;;;9.90;99.90;;;;;;5118022;27;20381;-74
2023/03/29 09:47:56;;;;;;;18.40;8.52;;;9.90;99.90;;;;;;5113650;27;20061;-71
2023/03/29 09:50:40;;;;;;;16.60;9.25;;;10.00;99.90;;;;;;5132677;27;20054;-71
2023/03/29 09:53:06;;;;;;;18.88;9.57;;;10.10;99.90;;;;;;5149488;27;20054;-73
2023/03/29 09:55:39;;;;;;;16.67;8.88;;;10.20;99.90;;;;;;5137208;27;20547;-72
2023/03/29 09:58:15;;;;;;;19.50;10.10;;;10.30;99.90;;;;;;5084772;27;20039;-73
2023/03/29 10:00:40;;;;;;;;;;;10.40;99.90;;;;;;5153822;27;20046;-73
2023/03/29 10:03:06;;;;;;;19.07;9.03;;;10.50;99.90;;;;;;5146157;27;20344;-74
2023/03/29 10:05:38;;;;;;;19.55;9.70;;;10.60;99.90;;;;;;5113418;27;20117;-71
2023/03/29 10:08:17;;;;;;;21.45;10.10;;;10.80;99.90;;;;;;5116693;27;20049;-71
2023/03/29 10:10:42;;;;;;;19.85;10.18;;;10.90;99.90;;;;;;5086234;27;20073;-82
2023/03/29 10:13:20;;;;;;;19.00;9.50;;;11.00;99.90;;;;;;5118144;27;20059;-74
2023/03/29 10:16:06;;;;;;;20.48;9.27;;;11.00;99.90;;;;;;5105401;27;20319;-75
2023/03/29 10:18:40;;;;;;;16.40;9.50;;;11.00;99.90;;;;;;5141239;27;20042;-74
2023/03/29 10:21:10;;;;;;;18.95;10.38;;;11.00;99.90;;;;;;5122184;27;20124;-73
2023/03/29 10:23:37;;;;;;;16.13;9.48;;;11.10;99.90;;;;;;5115759;27;20059;-74
2023/03/29 10:26:10;;;;;;;21.00;9.98;;;11.10;99.90;;;;;;5160153;27;20103;-73
2023/03/29 10:28:38;;;;;;;17.63;8.85;;;11.20;99.90;;;;;;5122535;27;20154;-73
2023/03/29 10:31:06;;;;;;;18.67;9.82;;;11.30;99.90;;;;;;5105917;27;20497;-76
2023/03/29 10:33:34;;;;;;;17.33;10.23;;;11.40;99.90;;;;;;5085939;27;20335;-71
2023/03/29 10:36:05;;;;;;;18.30;8.77;;;11.50;99.90;;;;;;5098443;27;20059;-75
2023/03/29 10:38:33;;;;;;;20.33;10.57;;;11.50;99.90;;;;;;5120112;27;20050;-75
2023/03/29 10:41:09;;;;;;;21.17;9.45;;;11.60;99.90;;;;;;5152343;27;20054;-75
2023/03/29 10:43:44;;;;;;;16.40;9.20;;;11.60;99.90;;;;;;5106937;27;20415;-77
2023/03/29 10:46:27;;;;;;;18.48;9.82;;;11.60;99.90;;;;;;5138320;27;20047;-77
2023/03/29 10:49:04;;;;;;;19.50;8.50;;;11.60;99.90;;;;;;5124613;27;20140;-75
2023/03/29 10:51:32;;;;;;;17.83;9.60;;;11.60;99.90;;;;;;5089301;27;20047;-73
2023/03/29 10:53:58;;;;;;;17.25;9.27;;;12.50;99.90;;;;;;5102623;27;20733;-74
2023/03/29 10:56:55;;;;;;;16.67;9.35;;;11.60;99.90;;;;;;5100604;27;20050;-74
2023/03/29 10:59:37;;;;;;;20.58;9.02;;;11.60;99.90;;;;;;5119601;27;20612;-75
2023/03/29 11:02:29;;;;;;;16.27;8.63;;;11.60;99.90;;;;;;5088843;27;20354;-74
2023/03/29 11:05:04;;;;;;;17.52;8.57;;;11.60;99.90;;;;;;5123871;27;20234;-74
2023/03/29 11:07:47;;;;;;;17.65;8.95;;;11.50;99.90;;;;;;5106137;27;20046;-72
2023/03/29 11:10:43;;;;;;;16.85;8.75;;;11.50;99.90;;;;;;5105003;27;20134;-74
2023/03/29 11:13:15;;;;;;;18.55;8.50;;;11.50;99.90;;;;;;5106688;27;20454;-73
2023/03/29 11:15:50;;;;;;;17.77;8.88;;;11.50;99.90;;;;;;5104910;27;20149;-76
2023/03/29 11:18:54;;;;;;;17.27;8.70;;;11.50;99.90;;;;;;5088846;27;20039;-75
2023/03/29 11:21:50;;;;;;;17.45;8.82;;;11.60;99.90;;;;;;5104414;27;20462;-76
2023/03/29 11:24:26;;;;;;;17.75;8.60;;;11.60;99.90;;;;;;5105275;27;20043;-74
2023/03/29 11:27:13;;;;;;;18.83;9.45;;;11.70;99.90;;;;;;5102291;27;20803;-75
2023/03/29 11:30:05;;;;;;;19.85;9.40;;;11.80;99.90;;;;;;5099351;27;20050;-74
2023/03/29 11:32:40;;;;;;;18.17;8.93;;;12.00;99.90;;;;;;5120628;27;20036;-75
2023/03/29 11:35:39;;;;;;;20.88;9.68;;;12.00;99.90;;;;;;5099045;27;20039;-74
2023/03/29 11:38:20;;;;;;;19.58;10.52;;;12.10;99.90;;;;;;5102124;27;20496;-75
2023/03/29 11:41:04;;;;;;;23.42;11.07;;;12.10;99.90;;;;;;5105541;27;20035;-75
2023/03/29 11:43:53;;;;;;;22.65;11.43;;;12.10;99.90;;;;;;5084467;27;20039;-74
2023/03/29 11:47:00;;;;;;;21.40;9.77;;;12.00;99.90;;;;;;5117990;27;20059;-73
2023/03/29 11:49:37;;;;;;;26.27;10.05;;;12.10;99.90;;;;;;5036733;28;20044;-75
2023/03/29 11:52:16;;;;;;;22.55;11.15;;;12.10;99.90;;;;;;5092097;27;20083;-74
2023/03/29 11:55:03;;;;;;;24.00;11.60;;;12.20;99.90;;;;;;5101507;27;20368;-73
2023/03/29 11:57:51;;;;;;;21.48;12.60;;;12.40;99.90;;;;;;5102417;27;20047;-73
2023/03/29 12:00:37;;;;;;;22.90;11.65;;;12.50;99.90;;;;;;5102038;27;20088;-73
2023/03/29 12:03:14;;;;;;;26.98;12.10;;;12.60;99.90;;;;;;5102146;27;20115;-72
2023/03/29 12:06:06;;;;;;;28.15;12.70;;;12.80;99.90;;;;;;5080417;27;20035;-74
2023/03/29 12:08:56;;;;;;;25.48;12.18;;;13.00;99.90;;;;;;5099559;27;20047;-73
2023/03/29 12:11:27;;;;;;;26.33;13.43;;;13.10;99.90;;;;;;5116650;27;20039;-74
2023/03/29 12:13:58;;;;;;;24.85;13.35;;;13.20;99.90;;;;;;5098825;27;20051;-76
2023/03/29 12:16:40;;;;;;;23.13;13.20;;;13.30;99.90;;;;;;5100007;27;20058;-75
2023/03/29 12:19:40;;;;;;;27.23;13.63;;;13.30;99.90;;;;;;5115914;27;20043;-76
2023/03/29 12:22:08;;;;;;;24.33;12.70;;;13.30;99.90;;;;;;5084296;27;20081;-75
2023/03/29 12:24:39;;;;;;;18.65;11.15;;;13.30;99.90;;;;;;5134658;27;21370;-74
2023/03/29 12:27:15;;;;;;;20.08;12.13;;;13.30;99.90;;;;;;5082534;27;20059;-76
2023/03/29 12:30:18;;;;;;;22.90;11.80;;;13.40;99.90;;;;;;5096544;27;20107;-74
2023/03/29 12:32:47;;;;;;;20.00;11.25;;;13.40;99.90;;;;;;5100343;27;20139;-73
2023/03/29 12:35:47;;;;;;;17.23;10.88;;;13.50;99.90;;;;;;5093258;27;21486;-72
2023/03/29 12:38:22;;;;;;;17.35;10.32;;;13.60;99.90;;;;;;5095599;27;20120;-74
2023/03/29 12:40:58;;;;;;;17.55;10.95;;;13.60;99.90;;;;;;5114434;27;20098;-74
2023/03/29 12:43:27;;;;;;;19.00;11.50;;;13.60;99.90;;;;;;5097236;27;20051;-74
2023/03/29 12:45:57;;;;;;;16.85;11.20;;;13.60;99.90;;;;;;5099191;27;20441;-76
2023/03/29 12:48:26;;;;;;;16.77;12.55;;;13.60;99.90;;;;;;5094710;27;20068;-75
2023/03/29 12:51:13;;;;;;;16.58;12.13;;;13.60;99.90;;;;;;5129483;27;20044;-76
2023/03/29 12:53:41;;;;;;;;;;;13.50;99.90;;;;;;5097090;27;20120;-75
2023/03/29 12:56:12;;;;;;;22.95;16.98;;;13.50;99.90;;;;;;5082346;27;20510;-76
2023/03/29 12:58:38;;;;;;;24.83;17.38;;;13.60;99.90;;;;;;5096325;27;20120;-74
2023/03/29 13:01:22;;;;;;;20.17;15.93;;;13.70;99.90;;;;;;5096718;27;20162;-75
2023/03/29 13:03:51;;;;;;;21.15;14.98;;;13.90;99.90;;;;;;5097447;27;20479;-77
2023/03/29 13:06:46;;;;;;;17.38;13.23;;;14.20;99.90;;;;;;5098064;27;20715;-83
2023/03/29 13:09:28;;;;;;;18.27;11.48;;;14.40;99.90;;;;;;5100403;27;20366;-74
2023/03/29 13:12:16;;;;;;;19.67;12.38;;;14.80;99.90;;;;;;5099569;27;20363;-77
2023/03/29 13:14:47;;;;;;;16.88;12.30;;;15.20;99.90;;;;;;5115482;27;20148;-73
2023/03/29 13:17:39;;;;;;;16.85;11.80;;;15.50;99.90;;;;;;5116111;27;20047;-72
2023/03/29 13:20:27;;;;;;;15.52;11.75;;;15.70;99.90;;;;;;5095918;27;20130;-75
2023/03/29 13:23:08;;;;;;;15.07;11.88;;;15.70;99.90;;;;;;5098076;27;20129;-76
2023/03/29 13:25:52;;;;;;;15.50;11.35;;;15.70;99.90;;;;;;5113368;27;20062;-77
2023/03/29 13:28:48;;;;;;;14.68;11.30;;;15.60;99.90;;;;;;5113232;27;20103;-80
2023/03/29 13:31:53;;;;;;;15.70;11.38;;;15.30;99.90;;;;;;5080942;27;20092;-78
2023/03/29 13:34:51;;;;;;;11.45;10.15;;;15.10;99.90;;;;;;5096121;27;20481;-77
2023/03/29 13:37:19;;;;;;;12.80;10.02;;;14.80;99.90;;;;;;5115640;27;20051;-74
2023/03/29 13:39:55;;;;;;;14.07;10.05;;;14.70;99.90;;;;;;5098778;27;20581;-72
2023/03/29 13:42:39;;;;;;;16.52;10.88;;;14.60;99.90;;;;;;5083714;27;20130;-71
2023/03/29 13:45:24;;;;;;;20.60;11.32;;;14.40;99.90;;;;;;5081039;27;20045;-72
2023/03/29 13:48:05;;;;;;;13.88;11.13;;;14.30;99.90;;;;;;5094507;28;20051;-73
2023/03/29 13:50:52;;;;;;;16.60;11.20;;;14.20;99.90;;;;;;5083288;28;20557;-76
2023/03/29 13:53:35;;;;;;;17.60;11.27;;;14.20;99.90;;;;;;5098138;27;20063;-83
2023/03/29 13:56:01;;;;;;;14.60;11.52;;;14.20;99.90;;;;;;5081855;27;20066;-77
2023/03/29 13:58:42;;;;;;;18.08;12.25;;;14.20;99.90;;;;;;5097699;28;20074;-73
2023/03/29 14:01:18;;;;;;;16.52;12.10;;;14.10;99.90;;;;;;5115631;27;20589;-74
2023/03/29 14:03:47;;;;;;;16.98;13.10;;;14.20;99.90;;;;;;5097545;27;20553;-76
2023/03/29 14:06:20;;;;;;;17.52;14.32;;;14.20;99.90;;;;;;5099215;28;20062;-79
2023/03/29 14:08:48;;;;;;;17.83;13.73;;;14.20;99.90;;;;;;5102104;27;20123;-73
2023/03/29 14:11:23;;;;;;;15.70;12.23;;;14.20;99.90;;;;;;5078157;27;20043;-74
2023/03/29 14:13:57;;;;;;;19.65;14.45;;;14.20;99.90;;;;;;5130160;27;20047;-76
2023/03/29 14:16:30;;;;;;;19.60;14.65;;;14.20;99.90;;;;;;5111958;27;20083;-75
2023/03/29 14:19:24;;;;;;;20.38;16.10;;;14.20;99.90;;;;;;5100026;27;20057;-74
2023/03/29 14:21:53;;;;;;;18.88;14.73;;;14.20;99.90;;;;;;5107335;27;20131;-72
2023/03/29 14:24:28;;;;;;;18.73;13.95;;;14.10;99.90;;;;;;5135003;27;20043;-73
2023/03/29 14:26:54;;;;;;;17.77;14.35;;;14.00;99.90;;;;;;5083349;27;20043;-77
2023/03/29 14:29:20;;;;;;;17.40;13.68;;;14.00;99.90;;;;;;5079899;27;20394;-74
2023/03/29 14:31:49;;;;;;;16.55;13.65;;;14.00;99.90;;;;;;5085333;27;20043;-73
2023/03/29 14:34:17;;;;;;;17.00;13.45;;;13.90;99.90;;;;;;5105219;27;20154;-72
2023/03/29 14:36:47;;;;;;;18.83;13.43;;;13.90;99.90;;;;;;5104184;27;20054;-71
2023/03/29 14:39:21;;;;;;;18.55;13.55;;;13.90;99.90;;;;;;5132179;27;20051;-74
2023/03/29 14:41:52;;;;;;;19.23;14.48;;;13.90;99.90;;;;;;5135579;27;20039;-75
2023/03/29 14:44:21;;;;;;;19.20;15.02;;;13.80;99.90;;;;;;5107018;27;20043;-73
2023/03/29 14:46:47;;;;;;;20.63;15.13;;;13.70;99.90;;;;;;5103226;27;20047;-74
2023/03/29 14:49:17;;;;;;;21.90;16.45;;;13.70;99.90;;;;;;5083223;27;20119;-72
2023/03/29 14:51:48;;;;;;;21.15;15.98;;;13.60;99.90;;;;;;5085173;27;20385;-74
2023/03/29 14:54:32;;;;;;;21.48;15.18;;;13.50;99.90;;;;;;5100518;27;20040;-83
2023/03/29 14:57:02;;;;;;;19.92;15.38;;;13.40;99.90;;;;;;5136222;27;20058;-73
2023/03/29 14:59:36;;;;;;;20.63;14.50;;;13.30;99.90;;;;;;5082473;27;20339;-72
2023/03/29 15:02:02;;;;;;;19.38;14.32;;;13.20;99.90;;;;;;5095024;27;20104;-74
2023/03/29 15:04:36;;;;;;;18.15;14.10;;;13.10;99.90;;;;;;5100659;27;20051;-79
2023/03/29 15:07:03;;;;;;;16.88;12.77;;;13.10;99.90;;;;;;5056158;27;20051;-76
2023/03/29 15:09:47;;;;;;;15.38;12.07;;;13.00;99.90;;;;;;5101543;27;20172;-76
2023/03/29 15:12:15;;;;;;;16.95;12.88;;;13.00;99.90;;;;;;5095456;27;20079;-78
2023/03/29 15:14:41;;;;;;;15.95;12.88;;;12.90;99.90;;;;;;5117527;27;20046;-73
2023/03/29 15:17:31;;;;;;;16.20;12.63;;;12.80;99.90;;;;;;5099656;27;20346;-75
2023/03/29 15:20:12;;;;;;;16.92;13.48;;;12.80;99.90;;;;;;5085929;27;20051;-73
2023/03/29 15:22:51;;;;;;;16.80;12.90;;;12.70;99.90;;;;;;5117709;27;20054;-71
2023/03/29 15:25:19;;;;;;;15.48;12.90;;;12.70;99.90;;;;;;5117725;27;20139;-77
2023/03/29 15:27:50;;;;;;;16.63;13.18;;;12.70;99.90;;;;;;5100007;27;20258;-77
2023/03/29 15:30:19;;;;;;;18.15;13.57;;;12.60;99.90;;;;;;5115965;27;20103;-73
2023/03/29 15:32:45;;;;;;;16.33;13.27;;;12.60;99.90;;;;;;5097096;27;20050;-73
2023/03/29 15:35:24;;;;;;;17.48;13.38;;;12.50;99.90;;;;;;5099182;27;20058;-74
2023/03/29 15:37:52;;;;;;;18.33;14.30;;;12.40;99.90;;;;;;5115043;27;20052;-73
2023/03/29 15:40:25;;;;;;;17.33;13.43;;;12.30;99.90;;;;;;5081305;27;20051;-74
2023/03/29 15:42:53;;;;;;;18.08;13.80;;;12.30;99.90;;;;;;5081521;27;20038;-73
2023/03/29 15:45:21;;;;;;;20.02;14.10;;;12.30;99.90;;;;;;5130328;27;20393;-74
2023/03/29 15:47:46;;;;;;;18.05;14.43;;;12.20;99.90;;;;;;5096469;27;20059;-73
2023/03/29 15:50:14;;;;;;;21.05;15.15;;;12.20;99.90;;;;;;5082125;27;20050;-70
2023/03/29 15:52:40;;;;;;;18.52;13.88;;;12.10;99.90;;;;;;5067087;27;20125;-71
2023/03/29 15:55:07;;;;;;;20.90;14.75;;;12.00;99.90;;;;;;5101250;27;20047;-74
2023/03/29 15:57:34;;;;;;;17.77;14.15;;;12.00;99.90;;;;;;5128450;27;20082;-73
2023/03/29 16:00:00;;;;;;;17.70;14.07;;;12.00;99.90;;;;;;5095348;27;20051;-73
2023/03/29 16:02:26;;;;;;;19.70;14.25;;;11.90;99.90;;;;;;5098955;27;20047;-73
2023/03/29 16:04:53;;;;;;;20.55;14.32;;;11.90;99.90;;;;;;5096831;27;21836;-72
2023/03/29 16:07:20;;;;;;;22.67;15.48;;;11.80;99.90;;;;;;5099035;27;20160;-73
2023/03/29 16:09:46;;;;;;;22.55;15.35;;;11.70;99.90;;;;;;5081067;27;20302;-73
2023/03/29 16:12:14;;;;;;;22.45;15.57;;;11.70;99.90;;;;;;5068059;27;20047;-73
2023/03/29 16:14:42;;;;;;;21.30;15.57;;;11.70;99.90;;;;;;5096266;27;20054;-73
2023/03/29 16:17:08;;;;;;;22.98;15.65;;;11.60;99.90;;;;;;5112804;27;20047;-73
2023/03/29 16:19:33;;;;;;;23.90;16.25;;;11.60;99.90;;;;;;5117760;27;20095;-74
2023/03/29 16:22:03;;;;;;;22.52;16.95;;;11.60;99.90;;;;;;5082767;27;20085;-73
2023/03/29 16:24:34;;;;;;;23.42;16.75;;;11.50;99.90;;;;;;5114135;27;20050;-73
2023/03/29 16:27:01;;;;;;;22.35;15.50;;;11.50;99.90;;;;;;5082338;27;20097;-73
2023/03/29 16:29:27;;;;;;;22.80;16.63;;;11.50;99.90;;;;;;5082775;27;20047;-74
2023/03/29 16:31:53;;;;;;;21.15;15.57;;;11.40;99.90;;;;;;5114288;27;20063;-73
2023/03/29 16:34:20;;;;;;;23.88;16.73;;;11.40;99.90;;;;;;5112734;27;20079;-74
2023/03/29 16:36:46;;;;;;;23.73;16.55;;;11.00;99.90;;;;;;5081453;27;20719;-71
2023/03/29 16:39:12;;;;;;;23.80;16.60;;;11.30;99.90;;;;;;5095651;27;20047;-73
2023/03/29 16:41:40;;;;;;;21.63;15.93;;;11.30;99.90;;;;;;5080036;27;20043;-72
2023/03/29 16:44:06;;;;;;;22.60;16.30;;;11.20;99.90;;;;;;5099335;27;20035;-72
2023/03/29 16:46:38;;;;;;;20.83;15.50;;;11.20;99.90;;;;;;5084408;27;20158;-74
2023/03/29 16:49:06;;;;;;;22.45;15.63;;;11.20;99.90;;;;;;5076453;27;20150;-73
2023/03/29 16:51:32;;;;;;;21.23;14.43;;;11.10;99.90;;;;;;5093738;27;20136;-74
2023/03/29 16:53:59;;;;;;;19.27;14.77;;;11.10;99.90;;;;;;5080946;27;20134;-73
2023/03/29 16:56:27;;;;;;;20.30;15.15;;;11.10;99.90;;;;;;5131974;27;20043;-73
2023/03/29 16:58:53;;;;;;;18.67;14.60;;;11.10;99.90;;;;;;5087082;27;20046;-73
2023/03/29 17:01:19;;;;;;;20.85;14.50;;;11.10;99.90;;;;;;5099169;27;20157;-73
2023/03/29 17:03:45;;;;;;;22.40;14.55;;;11.00;99.90;;;;;;5112920;27;20043;-73
2023/03/29 17:06:11;;;;;;;20.73;14.52;;;11.00;99.90;;;;;;5102877;27;20050;-74
2023/03/29 17:08:38;;;;;;;19.77;14.55;;;11.00;99.90;;;;;;5135579;27;20055;-73
2023/03/29 17:11:05;;;;;;;20.15;14.00;;;11.00;99.90;;;;;;5095495;27;20035;-73
2023/03/29 17:13:34;;;;;;;20.27;14.35;;;10.90;99.90;;;;;;5084169;27;20075;-72
2023/03/29 17:16:00;;;;;;;21.75;14.88;;;10.90;99.90;;;;;;5098587;27;20137;-71
2023/03/29 17:18:26;;;;;;;25.33;15.48;;;10.90;99.90;;;;;;5099797;27;20043;-73
2023/03/29 17:20:56;;;;;;;19.50;14.65;;;10.90;99.90;;;;;;5131412;27;20047;-71
2023/03/29 17:23:23;;;;;;;21.52;15.77;;;10.80;99.90;;;;;;5096592;27;20124;-72
2023/03/29 17:25:49;;;;;;;24.13;15.93;;;10.80;99.90;;;;;;5100972;27;20050;-72
2023/03/29 17:28:15;;;;;;;24.83;16.50;;;10.80;99.90;;;;;;5099541;27;20043;-71
2023/03/29 17:30:47;;;;;;;25.08;17.30;;;10.70;99.90;;;;;;5094091;27;21549;-74
2023/03/29 17:33:13;;;;;;;23.30;17.25;;;10.70;99.90;;;;;;5080360;28;20587;-73
2023/03/29 17:35:43;;;;;;;22.95;16.70;;;10.60;99.90;;;;;;5101050;28;20040;-73
2023/03/29 17:38:09;;;;;;;24.73;17.42;;;10.60;99.90;;;;;;5097967;28;20446;-74
2023/03/29 17:40:35;;;;;;;24.30;16.63;;;10.60;99.90;;;;;;5130180;27;20046;-73
2023/03/29 17:43:02;;;;;;;25.52;18.05;;;10.60;99.90;;;;;;5094161;27;20047;-72
2023/03/29 17:45:31;;;;;;;23.85;16.75;;;10.60;99.90;;;;;;5097191;27;20031;-73
2023/03/29 17:47:57;;;;;;;25.20;17.90;;;10.60;99.90;;;;;;5114428;27;20504;-72
2023/03/29 17:50:24;;;;;;;22.20;16.15;;;10.50;99.90;;;;;;5080786;27;20051;-72
2023/03/29 17:52:49;;;;;;;23.55;17.17;;;10.50;99.90;;;;;;5084499;27;20043;-74
2023/03/29 17:55:15;;;;;;;26.45;16.98;;;10.50;99.90;;;;;;5098379;27;20035;-73
2023/03/29 17:57:42;;;;;;;24.40;17.17;;;10.50;99.90;;;;;;5104774;27;20043;-73
2023/03/29 18:00:11;;;;;;;23.67;16.13;;;10.40;99.90;;;;;;5102206;27;20043;-73
2023/03/29 18:02:38;;;;;;;22.65;16.50;;;10.40;99.90;;;;;;5084650;27;20043;-74
2023/03/29 18:05:07;;;;;;;20.88;15.48;;;10.50;99.90;;;;;;5094203;27;20055;-75
2023/03/29 18:07:33;;;;;;;23.00;15.82;;;10.40;99.90;;;;;;5096543;27;20047;-73
2023/03/29 18:09:59;;;;;;;24.25;15.80;;;10.40;99.90;;;;;;5100936;27;20050;-73
2023/03/29 18:12:25;;;;;;;23.75;15.52;;;10.40;99.90;;;;;;5061001;27;20104;-73
2023/03/29 18:14:51;;;;;;;22.58;16.02;;;10.30;99.90;;;;;;5116833;27;20043;-75
2023/03/29 18:17:17;;;;;;;23.55;17.20;;;10.30;99.90;;;;;;5084752;27;20039;-74
2023/03/29 18:19:44;;;;;;;25.73;16.27;;;10.30;99.90;;;;;;5087197;27;20051;-73
2023/03/29 18:22:11;;;;;;;24.52;16.48;;;10.30;99.90;;;;;;5119385;27;20054;-73
2023/03/29 18:24:37;;;;;;;25.73;17.60;;;10.30;99.90;;;;;;5085001;27;20043;-73
2023/03/29 18:27:02;;;;;;;25.90;17.42;;;10.30;99.90;;;;;;5101836;27;20430;-74
2023/03/29 18:29:28;;;;;;;25.98;18.17;;;10.30;99.90;;;;;;5104513;27;21918;-73
2023/03/29 18:31:54;;;;;;;28.63;18.67;;;10.30;99.90;;;;;;5089047;27;20047;-74
2023/03/29 18:34:21;;;;;;;24.40;18.15;;;10.30;99.90;;;;;;5121389;27;20043;-71
2023/03/29 18:36:53;;;;;;;26.75;18.70;;;10.30;99.90;;;;;;5106148;27;20051;-74
2023/03/29 18:39:18;;;;;;;26.27;19.98;;;10.30;99.90;;;;;;5070326;27;20054;-75
2023/03/29 18:41:46;;;;;;;32.30;20.40;;;10.30;99.90;;;;;;5120994;27;20158;-72
2023/03/29 18:44:14;;;;;;;28.52;20.02;;;10.30;99.90;;;;;;5099645;27;20122;-73
2023/03/29 18:46:40;;;;;;;30.25;21.42;;;10.30;99.90;;;;;;5086312;27;20050;-73
2023/03/29 18:49:11;;;;;;;30.33;20.60;;;10.20;99.90;;;;;;5087499;27;20036;-73
2023/03/29 18:51:38;;;;;;;31.00;21.52;;;10.20;99.90;;;;;;5100489;27;20039;-73
2023/03/29 18:54:04;;;;;;;29.73;21.27;;;10.20;99.90;;;;;;5088699;27;20035;-73
2023/03/29 18:56:30;;;;;;;31.08;22.10;;;10.20;99.90;;;;;;5085870;27;20078;-74
2023/03/29 18:58:56;;;;;;;30.17;20.85;;;10.20;99.90;;;;;;5096601;27;20143;-74
2023/03/29 19:01:22;;;;;;;31.98;22.23;;;10.20;99.90;;;;;;5101511;27;20039;-74
2023/03/29 19:03:48;;;;;;;32.45;24.08;;;10.20;99.90;;;;;;5097502;27;20055;-73
2023/03/29 19:06:14;;;;;;;31.13;23.05;;;10.20;99.90;;;;;;5080626;27;20351;-73
2023/03/29 19:08:41;;;;;;;33.83;23.52;;;10.20;99.90;;;;;;5093204;27;20053;-74
2023/03/29 19:11:10;;;;;;;34.08;23.58;;;10.20;99.90;;;;;;5098109;27;20047;-73
2023/03/29 19:13:36;;;;;;;34.75;23.50;;;10.20;99.90;;;;;;5098711;27;20498;-74
2023/03/29 19:16:02;;;;;;;33.78;24.23;;;10.20;99.90;;;;;;5097323;27;20043;-73
2023/03/29 19:18:28;;;;;;;37.72;25.65;;;10.20;99.90;;;;;;5088113;27;20158;-73
2023/03/29 19:20:55;;;;;;;33.75;23.73;;;10.20;99.90;;;;;;5080702;27;20489;-75
2023/03/29 19:23:23;;;;;;;35.88;25.05;;;10.20;99.90;;;;;;5063207;27;20043;-73
2023/03/29 19:25:57;;;;;;;35.63;24.48;;;10.20;99.90;;;;;;5097756;27;20057;-74
2023/03/29 19:28:24;;;;;;;33.53;24.38;;;10.20;99.90;;;;;;5082041;27;20047;-72
2023/03/29 19:30:51;;;;;;;31.25;23.75;;;10.20;99.90;;;;;;5081258;27;20051;-72
2023/03/29 19:33:20;;;;;;;32.70;24.42;;;10.20;99.90;;;;;;5097143;27;20045;-72
2023/03/29 19:35:48;;;;;;;31.58;23.65;;;10.20;99.90;;;;;;5088682;27;20055;-72
2023/03/29 19:38:21;;;;;;;34.35;23.80;;;10.20;99.90;;;;;;5110493;27;20527;-74
2023/03/29 19:40:51;;;;;;;32.50;23.17;;;10.30;99.90;;;;;;5126649;27;20075;-75
2023/03/29 19:43:18;;;;;;;31.75;22.35;;;10.30;99.90;;;;;;5092616;27;20150;-74
2023/03/29 19:45:45;;;;;;;31.20;23.45;;;10.30;99.90;;;;;;5094550;27;20388;-75
2023/03/29 19:48:12;;;;;;;32.80;21.60;;;10.30;99.90;;;;;;5095404;27;20043;-74
2023/03/29 19:50:40;;;;;;;33.40;23.27;;;10.30;99.90;;;;;;5090896;27;20133;-73
2023/03/29 19:53:06;;;;;;;28.60;21.40;;;10.30;99.90;;;;;;5126353;27;20049;-74
2023/03/29 19:55:33;;;;;;;30.45;22.38;;;10.30;99.90;;;;;;5092956;27;20054;-74
2023/03/29 19:57:59;;;;;;;27.27;20.75;;;10.40;99.90;;;;;;5092791;27;20108;-73
2023/03/29 20:00:26;;;;;;;28.90;21.02;;;10.40;99.90;;;;;;5110392;27;20427;-74
2023/03/29 20:02:55;;;;;;;27.50;20.73;;;10.40;99.90;;;;;;5093487;27;20079;-75
2023/03/29 20:05:22;;;;;;;28.05;21.98;;;10.40;99.90;;;;;;5110057;27;20047;-74
2023/03/29 20:07:49;;;;;;;27.45;19.73;;;11.30;99.90;;;;;;5113356;27;20039;-72
2023/03/29 20:10:15;;;;;;;31.92;20.60;;;10.40;99.90;;;;;;5080867;27;20066;-72
2023/03/29 20:12:41;;;;;;;23.85;18.42;;;10.40;99.90;;;;;;5079655;27;21488;-73
2023/03/29 20:15:08;;;;;;;26.40;21.48;;;10.40;99.90;;;;;;5072949;27;20359;-74
2023/03/29 20:17:34;;;;;;;25.52;20.85;;;10.50;99.90;;;;;;5080450;27;20050;-74
2023/03/29 20:20:01;;;;;;;25.50;20.08;;;10.40;99.90;;;;;;5102057;27;20043;-72
2023/03/29 20:22:29;;;;;;;25.63;19.50;;;10.40;99.90;;;;;;5103016;27;20047;-73
2023/03/29 20:24:56;;;;;;;24.83;18.30;;;10.50;99.90;;;;;;5103367;27;20065;-73
2023/03/29 20:27:22;;;;;;;25.42;19.42;;;10.50;99.90;;;;;;5103818;27;20077;-73
2023/03/29 20:29:48;;;;;;;25.60;18.90;;;10.50;99.90;;;;;;5118788;27;20077;-73